sensor_id;sensor_type;location;lat;lon;timestamp;P1;P2;P0
44674;PMS5003;30388;52.038;-1.478;2023-02-15T14:34:20;20;19;
44674;PMS5003;30388;52.038;-1.478;2023-02-15T14:38:26;8;8;
44674;PMS5003;30388;52.038;-1.478;2023-02-15T14:41:12;18;17;
44674;PMS5003;30388;52.038;-1.478;2023-02-15T14:43:44;12;10;
44674;PMS5003;30388;52.038;-1.478;2023-02-15T14:46:21;12;10;
44674;PMS5003;30388;52.038;-1.478;2023-02-15T14:48:55;19;15;
44674;PMS5003;30388;52.038;-1.478;2023-02-15T14:51:58;12;6;
44674;PMS5003;30388;52.038;-1.478;2023-02-15T14:54:59;17;14;
44674;PMS5003;30388;52.038;-1.478;2023-02-15T14:57:27;13;12;
44674;PMS5003;30388;52.038;-1.478;2023-02-15T14:59:57;18;13;
44674;PMS5003;30388;52.038;-1.478;2023-02-15T15:02:27;14;9;
44674;PMS5003;30388;52.038;-1.478;2023-02-15T15:05:09;10;8;
44674;PMS5003;30388;52.038;-1.478;2023-02-15T15:07:42;6;6;
44674;PMS5003;30388;52.038;-1.478;2023-02-15T15:10:52;13;10;
44674;PMS5003;30388;52.038;-1.478;2023-02-15T15:13:37;14;11;
44674;PMS5003;30388;52.038;-1.478;2023-02-15T15:17:11;14;12;
44674;PMS5003;30388;52.038;-1.478;2023-02-15T15:19:57;16;16;
44674;PMS5003;30388;52.038;-1.478;2023-02-15T15:22:27;15;14;
44674;PMS5003;30388;52.038;-1.478;2023-02-15T15:24:55;10;9;
44674;PMS5003;30388;52.038;-1.478;2023-02-15T15:27:56;10;7;
44674;PMS5003;30388;52.038;-1.478;2023-02-15T15:30:56;8;6;
44674;PMS5003;30388;52.038;-1.478;2023-02-15T15:33:37;10;7;
44674;PMS5003;30388;52.038;-1.478;2023-02-15T15:37:47;9;8;
44674;PMS5003;30388;52.038;-1.478;2023-02-15T15:40:51;10;7;
44674;PMS5003;30388;52.038;-1.478;2023-02-15T15:43:55;11;7;
44674;PMS5003;30388;52.038;-1.478;2023-02-15T15:47:27;7;6;
44674;PMS5003;30388;52.038;-1.478;2023-02-15T15:50:11;5;5;
44674;PMS5003;30388;52.038;-1.478;2023-02-15T15:52:41;5;4;
44674;PMS5003;30388;52.038;-1.478;2023-02-15T15:55:14;6;6;
44674;PMS5003;30388;52.038;-1.478;2023-02-15T15:57:44;8;7;
44674;PMS5003;30388;52.038;-1.478;2023-02-15T16:00:27;3;3;
44674;PMS5003;30388;52.038;-1.478;2023-02-15T16:03:01;8;6;
44674;PMS5003;30388;52.038;-1.478;2023-02-15T16:05:35;9;7;
44674;PMS5003;30388;52.038;-1.478;2023-02-15T16:08:03;13;9;
44674;PMS5003;30388;52.038;-1.478;2023-02-15T16:10:31;6;4;
44674;PMS5003;30388;52.038;-1.478;2023-02-15T16:13:00;16;15;
44674;PMS5003;30388;52.038;-1.478;2023-02-15T16:15:31;13;12;
44674;PMS5003;30388;52.038;-1.478;2023-02-15T16:18:03;14;12;
44674;PMS5003;30388;52.038;-1.478;2023-02-15T16:20:31;14;13;
44674;PMS5003;30388;52.038;-1.478;2023-02-15T16:23:07;24;19;
44674;PMS5003;30388;52.038;-1.478;2023-02-15T16:25:49;22;21;
44674;PMS5003;30388;52.038;-1.478;2023-02-15T16:28:30;17;16;
44674;PMS5003;30388;52.038;-1.478;2023-02-15T16:31:04;9;8;
44674;PMS5003;30388;52.038;-1.478;2023-02-15T16:33:35;7;7;
44674;PMS5003;30388;52.038;-1.478;2023-02-15T16:36:04;9;8;
44674;PMS5003;30388;52.038;-1.478;2023-02-15T16:38:47;7;7;
44674;PMS5003;30388;52.038;-1.478;2023-02-15T16:41:33;11;7;
44674;PMS5003;30388;52.038;-1.478;2023-02-15T16:44:04;8;6;
44674;PMS5003;30388;52.038;-1.478;2023-02-15T16:46:35;9;8;
44674;PMS5003;30388;52.038;-1.478;2023-02-15T16:49:12;16;13;
44674;PMS5003;30388;52.038;-1.478;2023-02-15T16:51:45;8;6;
44674;PMS5003;30388;52.038;-1.478;2023-02-15T16:54:22;12;12;
44674;PMS5003;30388;52.038;-1.478;2023-02-15T16:56:50;11;11;
44674;PMS5003;30388;52.038;-1.478;2023-02-15T16:59:20;19;17;
44674;PMS5003;30388;52.038;-1.478;2023-02-15T17:02:00;20;18;
44674;PMS5003;30388;52.038;-1.478;2023-02-15T17:04:32;23;21;
44674;PMS5003;30388;52.038;-1.478;2023-02-15T17:07:01;38;38;
44674;PMS5003;30388;52.038;-1.478;2023-02-15T17:09:32;36;35;
44674;PMS5003;30388;52.038;-1.478;2023-02-15T17:12:00;37;36;
44674;PMS5003;30388;52.038;-1.478;2023-02-15T17:14:29;60;56;
44674;PMS5003;30388;52.038;-1.478;2023-02-15T17:16:59;44;40;
44674;PMS5003;30388;52.038;-1.478;2023-02-15T17:19:29;51;50;
44674;PMS5003;30388;52.038;-1.478;2023-02-15T17:22:01;36;36;
44674;PMS5003;30388;52.038;-1.478;2023-02-15T17:24:34;12;9;
44674;PMS5003;30388;52.038;-1.478;2023-02-15T17:27:05;27;24;
44674;PMS5003;30388;52.038;-1.478;2023-02-15T17:29:39;18;16;
44674;PMS5003;30388;52.038;-1.478;2023-02-15T17:32:14;16;15;
44674;PMS5003;30388;52.038;-1.478;2023-02-15T17:34:47;20;17;
44674;PMS5003;30388;52.038;-1.478;2023-02-15T17:37:43;19;16;
44674;PMS5003;30388;52.038;-1.478;2023-02-15T17:40:19;20;18;
44674;PMS5003;30388;52.038;-1.478;2023-02-15T17:42:49;10;8;
44674;PMS5003;30388;52.038;-1.478;2023-02-15T17:45:16;10;7;
44674;PMS5003;30388;52.038;-1.478;2023-02-15T17:47:44;8;7;
44674;PMS5003;30388;52.038;-1.478;2023-02-15T17:50:17;7;6;
44674;PMS5003;30388;52.038;-1.478;2023-02-15T17:52:47;12;7;
44674;PMS5003;30388;52.038;-1.478;2023-02-15T17:55:15;7;7;
44674;PMS5003;30388;52.038;-1.478;2023-02-15T17:57:44;10;9;
44674;PMS5003;30388;52.038;-1.478;2023-02-15T18:00:13;13;11;
44674;PMS5003;30388;52.038;-1.478;2023-02-15T18:02:40;14;10;
44674;PMS5003;30388;52.038;-1.478;2023-02-15T18:05:12;18;18;
44674;PMS5003;30388;52.038;-1.478;2023-02-15T18:07:39;25;25;
44674;PMS5003;30388;52.038;-1.478;2023-02-15T18:10:12;12;11;
44674;PMS5003;30388;52.038;-1.478;2023-02-15T18:12:40;10;9;
44674;PMS5003;30388;52.038;-1.478;2023-02-15T18:15:07;10;10;
44674;PMS5003;30388;52.038;-1.478;2023-02-15T18:17:36;22;22;
44674;PMS5003;30388;52.038;-1.478;2023-02-15T18:20:06;18;18;
44674;PMS5003;30388;52.038;-1.478;2023-02-15T18:20:17;18;18;
44674;PMS5003;30388;52.038;-1.478;2023-02-15T18:22:46;15;15;
44674;PMS5003;30388;52.038;-1.478;2023-02-15T18:25:14;11;11;
44674;PMS5003;30388;52.038;-1.478;2023-02-15T18:27:43;18;18;
44674;PMS5003;30388;52.038;-1.478;2023-02-15T18:30:13;26;26;
44674;PMS5003;30388;52.038;-1.478;2023-02-15T18:32:43;33;33;
44674;PMS5003;30388;52.038;-1.478;2023-02-15T18:35:12;9;9;
44674;PMS5003;30388;52.038;-1.478;2023-02-15T18:37:41;34;34;
44674;PMS5003;30388;52.038;-1.478;2023-02-15T18:40:09;30;30;
44674;PMS5003;30388;52.038;-1.478;2023-02-15T18:42:41;33;33;
44674;PMS5003;30388;52.038;-1.478;2023-02-15T18:45:11;26;24;
44674;PMS5003;30388;52.038;-1.478;2023-02-15T18:47:44;24;23;
44674;PMS5003;30388;52.038;-1.478;2023-02-15T18:50:12;23;19;
44674;PMS5003;30388;52.038;-1.478;2023-02-15T18:52:39;30;30;
44674;PMS5003;30388;52.038;-1.478;2023-02-15T18:55:14;14;14;
44674;PMS5003;30388;52.038;-1.478;2023-02-15T18:57:46;20;19;
44674;PMS5003;30388;52.038;-1.478;2023-02-15T19:00:16;11;11;
44674;PMS5003;30388;52.038;-1.478;2023-02-15T19:02:46;7;7;
44674;PMS5003;30388;52.038;-1.478;2023-02-15T19:05:13;10;8;
44674;PMS5003;30388;52.038;-1.478;2023-02-15T19:07:40;11;7;
44674;PMS5003;30388;52.038;-1.478;2023-02-15T19:10:12;9;8;
44674;PMS5003;30388;52.038;-1.478;2023-02-15T19:12:43;10;10;
44674;PMS5003;30388;52.038;-1.478;2023-02-15T19:15:13;15;11;
44674;PMS5003;30388;52.038;-1.478;2023-02-15T19:17:41;4;2;
44674;PMS5003;30388;52.038;-1.478;2023-02-15T19:20:15;8;7;
44674;PMS5003;30388;52.038;-1.478;2023-02-15T19:22:43;7;6;
44674;PMS5003;30388;52.038;-1.478;2023-02-15T19:25:13;5;5;
44674;PMS5003;30388;52.038;-1.478;2023-02-15T19:27:45;6;5;
44674;PMS5003;30388;52.038;-1.478;2023-02-15T19:30:13;4;4;
44674;PMS5003;30388;52.038;-1.478;2023-02-15T19:32:44;4;3;
44674;PMS5003;30388;52.038;-1.478;2023-02-15T19:35:13;10;9;
44674;PMS5003;30388;52.038;-1.478;2023-02-15T19:37:42;36;36;
44674;PMS5003;30388;52.038;-1.478;2023-02-15T19:40:16;18;18;
44674;PMS5003;30388;52.038;-1.478;2023-02-15T19:42:46;8;5;
44674;PMS5003;30388;52.038;-1.478;2023-02-15T19:45:20;7;6;
44674;PMS5003;30388;52.038;-1.478;2023-02-15T19:47:50;8;4;
44674;PMS5003;30388;52.038;-1.478;2023-02-15T19:50:18;7;5;
44674;PMS5003;30388;52.038;-1.478;2023-02-15T19:52:47;4;4;
44674;PMS5003;30388;52.038;-1.478;2023-02-15T19:55:15;8;5;
44674;PMS5003;30388;52.038;-1.478;2023-02-15T19:57:49;5;4;
44674;PMS5003;30388;52.038;-1.478;2023-02-15T20:00:18;7;6;
44674;PMS5003;30388;52.038;-1.478;2023-02-15T20:02:47;9;5;
44674;PMS5003;30388;52.038;-1.478;2023-02-15T20:05:15;5;5;
44674;PMS5003;30388;52.038;-1.478;2023-02-15T20:07:43;6;6;
44674;PMS5003;30388;52.038;-1.478;2023-02-15T20:10:14;13;9;
44674;PMS5003;30388;52.038;-1.478;2023-02-15T20:12:42;8;7;
44674;PMS5003;30388;52.038;-1.478;2023-02-15T20:15:19;6;6;
44674;PMS5003;30388;52.038;-1.478;2023-02-15T20:17:48;7;7;
44674;PMS5003;30388;52.038;-1.478;2023-02-15T20:20:15;48;44;
44674;PMS5003;30388;52.038;-1.478;2023-02-15T20:22:44;53;50;
44674;PMS5003;30388;52.038;-1.478;2023-02-15T20:25:14;37;37;
44674;PMS5003;30388;52.038;-1.478;2023-02-15T20:27:46;37;37;
44674;PMS5003;30388;52.038;-1.478;2023-02-15T20:30:14;12;6;
44674;PMS5003;30388;52.038;-1.478;2023-02-15T20:32:44;11;8;
44674;PMS5003;30388;52.038;-1.478;2023-02-15T20:35:12;10;9;
44674;PMS5003;30388;52.038;-1.478;2023-02-15T20:37:40;17;13;
44674;PMS5003;30388;52.038;-1.478;2023-02-15T20:40:12;15;11;
44674;PMS5003;30388;52.038;-1.478;2023-02-15T20:42:42;15;11;
44674;PMS5003;30388;52.038;-1.478;2023-02-15T20:45:15;15;12;
44674;PMS5003;30388;52.038;-1.478;2023-02-15T20:47:44;20;19;
44674;PMS5003;30388;52.038;-1.478;2023-02-15T20:50:11;15;15;
44674;PMS5003;30388;52.038;-1.478;2023-02-15T20:52:39;42;41;
44674;PMS5003;30388;52.038;-1.478;2023-02-15T20:55:10;36;36;
44674;PMS5003;30388;52.038;-1.478;2023-02-15T20:57:39;22;18;
44674;PMS5003;30388;52.038;-1.478;2023-02-15T21:00:11;17;15;
44674;PMS5003;30388;52.038;-1.478;2023-02-15T21:02:40;17;16;
44674;PMS5003;30388;52.038;-1.478;2023-02-15T21:05:13;36;34;
44674;PMS5003;30388;52.038;-1.478;2023-02-15T21:07:42;34;28;
44674;PMS5003;30388;52.038;-1.478;2023-02-15T21:10:12;39;34;
44674;PMS5003;30388;52.038;-1.478;2023-02-15T21:12:40;56;51;
44674;PMS5003;30388;52.038;-1.478;2023-02-15T21:15:22;48;43;
44674;PMS5003;30388;52.038;-1.478;2023-02-15T21:17:51;26;21;
44674;PMS5003;30388;52.038;-1.478;2023-02-15T21:20:19;19;17;
44674;PMS5003;30388;52.038;-1.478;2023-02-15T21:22:47;12;10;
44674;PMS5003;30388;52.038;-1.478;2023-02-15T21:25:21;11;9;
44674;PMS5003;30388;52.038;-1.478;2023-02-15T21:27:52;15;12;
44674;PMS5003;30388;52.038;-1.478;2023-02-15T21:30:20;13;10;
44674;PMS5003;30388;52.038;-1.478;2023-02-15T21:32:48;13;9;
44674;PMS5003;30388;52.038;-1.478;2023-02-15T21:35:16;16;13;
44674;PMS5003;30388;52.038;-1.478;2023-02-15T21:37:45;12;9;
44674;PMS5003;30388;52.038;-1.478;2023-02-15T21:40:16;11;11;
44674;PMS5003;30388;52.038;-1.478;2023-02-15T21:42:45;18;16;
44674;PMS5003;30388;52.038;-1.478;2023-02-15T21:45:13;12;8;
44674;PMS5003;30388;52.038;-1.478;2023-02-15T21:47:41;7;7;
44674;PMS5003;30388;52.038;-1.478;2023-02-15T21:50:11;15;11;
44674;PMS5003;30388;52.038;-1.478;2023-02-15T21:52:41;13;11;
44674;PMS5003;30388;52.038;-1.478;2023-02-15T21:55:11;12;12;
44674;PMS5003;30388;52.038;-1.478;2023-02-15T21:57:39;7;7;
44674;PMS5003;30388;52.038;-1.478;2023-02-15T22:00:11;14;11;
44674;PMS5003;30388;52.038;-1.478;2023-02-15T22:02:41;14;11;
44674;PMS5003;30388;52.038;-1.478;2023-02-15T22:05:12;13;8;
44674;PMS5003;30388;52.038;-1.478;2023-02-15T22:07:41;11;10;
44674;PMS5003;30388;52.038;-1.478;2023-02-15T22:10:08;14;8;
44674;PMS5003;30388;52.038;-1.478;2023-02-15T22:12:37;16;10;
44674;PMS5003;30388;52.038;-1.478;2023-02-15T22:15:04;15;8;
44674;PMS5003;30388;52.038;-1.478;2023-02-15T22:17:32;13;10;
44674;PMS5003;30388;52.038;-1.478;2023-02-15T22:19:59;15;13;
44674;PMS5003;30388;52.038;-1.478;2023-02-15T22:22:25;8;5;
44674;PMS5003;30388;52.038;-1.478;2023-02-15T22:24:52;10;10;
44674;PMS5003;30388;52.038;-1.478;2023-02-15T22:27:20;11;8;
44674;PMS5003;30388;52.038;-1.478;2023-02-15T22:29:49;11;6;
44674;PMS5003;30388;52.038;-1.478;2023-02-15T22:32:18;7;6;
44674;PMS5003;30388;52.038;-1.478;2023-02-15T22:34:47;4;4;
44674;PMS5003;30388;52.038;-1.478;2023-02-15T22:37:15;6;6;
44674;PMS5003;30388;52.038;-1.478;2023-02-15T22:39:42;7;6;
44674;PMS5003;30388;52.038;-1.478;2023-02-15T22:42:16;8;5;
44674;PMS5003;30388;52.038;-1.478;2023-02-15T22:44:48;9;5;
44674;PMS5003;30388;52.038;-1.478;2023-02-15T22:47:17;14;10;
44674;PMS5003;30388;52.038;-1.478;2023-02-15T22:49:46;16;14;
44674;PMS5003;30388;52.038;-1.478;2023-02-15T22:52:13;23;23;
44674;PMS5003;30388;52.038;-1.478;2023-02-15T22:54:41;31;29;
44674;PMS5003;30388;52.038;-1.478;2023-02-15T22:57:12;31;31;
44674;PMS5003;30388;52.038;-1.478;2023-02-15T22:59:42;28;27;
44674;PMS5003;30388;52.038;-1.478;2023-02-15T23:02:11;28;27;
44674;PMS5003;30388;52.038;-1.478;2023-02-15T23:04:40;22;18;
44674;PMS5003;30388;52.038;-1.478;2023-02-15T23:07:11;28;25;
44674;PMS5003;30388;52.038;-1.478;2023-02-15T23:09:40;12;11;
44674;PMS5003;30388;52.038;-1.478;2023-02-15T23:12:12;5;5;
44674;PMS5003;30388;52.038;-1.478;2023-02-15T23:14:49;9;4;
44674;PMS5003;30388;52.038;-1.478;2023-02-15T23:17:16;7;4;
44674;PMS5003;30388;52.038;-1.478;2023-02-15T23:19:44;3;3;
44674;PMS5003;30388;52.038;-1.478;2023-02-15T23:22:11;7;4;
44674;PMS5003;30388;52.038;-1.478;2023-02-15T23:24:41;5;2;
44674;PMS5003;30388;52.038;-1.478;2023-02-15T23:27:14;4;3;
44674;PMS5003;30388;52.038;-1.478;2023-02-15T23:29:41;6;4;
44674;PMS5003;30388;52.038;-1.478;2023-02-15T23:32:09;5;2;
44674;PMS5003;30388;52.038;-1.478;2023-02-15T23:34:39;3;1;
44674;PMS5003;30388;52.038;-1.478;2023-02-15T23:37:08;6;4;
44674;PMS5003;30388;52.038;-1.478;2023-02-15T23:39:37;5;4;
44674;PMS5003;30388;52.038;-1.478;2023-02-15T23:42:06;5;3;
44674;PMS5003;30388;52.038;-1.478;2023-02-15T23:44:37;3;3;
44674;PMS5003;30388;52.038;-1.478;2023-02-15T23:47:08;3;2;
44674;PMS5003;30388;52.038;-1.478;2023-02-15T23:49:46;5;4;
44674;PMS5003;30388;52.038;-1.478;2023-02-15T23:52:13;4;3;
44674;PMS5003;30388;52.038;-1.478;2023-02-15T23:54:41;6;4;
44674;PMS5003;30388;52.038;-1.478;2023-02-15T23:57:08;7;7;
44674;PMS5003;30388;52.038;-1.478;2023-02-15T23:59:37;2;2;
